Aviation Digital Data Service (ADDS)

Output produced by METARs form (1412 UTC 24 April 2014)
found at http://aviationweather.gov/adds/metars/
 
KPSM 241120Z 2412/2512 30016G26KT P6SM SCT060 
     FM241500 31023G35KT P6SM SCT060 
     FM250200 32010KT P6SM SKC